Time;durP1;ratioP1;P1;durP2;ratioP2;P2;SDS_P1;SDS_P2;PMS_P1;PMS_P2;Temp;Humidity;BMP_temperature;BMP_pressure;BME280_temperature;BME280_humidity;BME280_pressure;Samples;Min_cycle;Max_cycle;Signal;HPM_P1;HPM_P2
2021/10/19 00:01:52;;;;;;;27.30;15.75;;;;;;;9.50;89.19;101414.91;5082768;28;20052;-86
2021/10/19 00:04:23;;;;;;;23.25;14.93;;;;;;;9.48;88.97;101410.53;5113984;27;20071;-85
2021/10/19 00:06:53;;;;;;;24.02;15.68;;;;;;;9.47;89.62;101420.13;5089620;28;20040;-86
2021/10/19 00:09:19;;;;;;;21.98;14.38;;;;;;;9.45;89.36;101414.00;5083280;28;20047;-86
2021/10/19 00:11:46;;;;;;;20.55;13.13;;;;;;;9.44;89.44;101426.22;5101176;27;20039;-86
2021/10/19 00:14:13;;;;;;;21.05;13.43;;;;;;;9.46;89.64;101422.72;5094057;28;20044;-86
2021/10/19 00:16:40;;;;;;;21.27;13.75;;;;;;;9.47;89.75;101414.91;5103359;27;20047;-85
2021/10/19 00:19:06;;;;;;;26.50;14.13;;;;;;;9.48;89.52;101407.91;5099351;27;20104;-86
2021/10/19 00:21:33;;;;;;;23.95;15.52;;;;;;;9.50;89.68;101399.22;5085326;28;20054;-86
2021/10/19 00:24:00;;;;;;;21.90;14.23;;;;;;;9.53;90.14;101401.00;5083216;27;20448;-86
2021/10/19 00:26:26;;;;;;;27.25;14.88;;;;;;;9.58;89.79;101414.97;5107226;27;20047;-85
2021/10/19 00:28:53;;;;;;;20.17;13.57;;;;;;;9.61;89.21;101415.00;5104873;27;20780;-86
2021/10/19 00:31:20;;;;;;;22.10;14.48;;;;;;;9.64;89.25;101414.16;5101203;28;20122;-86
2021/10/19 00:33:55;;;;;;;23.23;14.73;;;;;;;9.67;88.98;101420.25;5124852;27;20043;-86
2021/10/19 00:36:22;;;;;;;20.95;13.35;;;;;;;9.69;88.62;101420.31;5113428;27;20051;-86
2021/10/19 00:38:48;;;;;;;20.73;13.15;;;;;;;9.69;88.81;101423.78;5113497;27;20051;-86
2021/10/19 00:41:15;;;;;;;22.15;14.73;;;;;;;9.71;89.03;101416.84;5096209;28;20048;-86
2021/10/19 00:43:42;;;;;;;22.88;13.52;;;;;;;9.73;88.40;101422.94;5097372;28;20044;-86
2021/10/19 00:46:14;;;;;;;22.38;13.95;;;;;;;9.74;88.91;101409.00;5094313;28;20054;-86
2021/10/19 00:48:42;;;;;;;24.92;14.52;;;;;;;9.75;88.65;101412.47;5091858;27;20040;-86
2021/10/19 00:51:12;;;;;;;20.80;13.82;;;;;;;9.75;88.69;101412.47;5129824;27;20696;-86
2021/10/19 00:53:39;;;;;;;19.42;13.07;;;;;;;9.76;88.51;101412.50;5104350;27;20130;-85
2021/10/19 00:56:08;;;;;;;25.30;15.48;;;;;;;9.79;88.88;101411.66;5115682;27;20045;-86
2021/10/19 00:58:39;;;;;;;22.17;13.55;;;;;;;9.83;88.35;101415.16;5115926;27;20528;-86
2021/10/19 01:01:07;;;;;;;18.77;13.63;;;;;;;9.85;88.51;101405.59;5097102;28;20044;-85
2021/10/19 01:03:35;;;;;;;21.38;14.32;;;;;;;9.87;88.41;101409.94;5099030;27;20039;-86
2021/10/19 01:06:07;;;;;;;21.95;13.98;;;;;;;9.87;88.74;101407.34;5109094;27;20047;-86
2021/10/19 01:08:33;;;;;;;22.52;14.52;;;;;;;9.88;88.42;101408.19;5104451;27;20054;-86
2021/10/19 01:11:00;;;;;;;23.10;14.15;;;;;;;9.91;89.01;101410.84;5097732;27;20047;-86
2021/10/19 01:13:27;;;;;;;22.40;14.05;;;;;;;9.88;88.84;101397.75;5092636;27;20052;-84
2021/10/19 01:16:13;;;;;;;21.67;14.13;;;;;;;9.89;89.08;101394.28;5103153;27;20043;-86
2021/10/19 01:18:41;;;;;;;21.83;13.60;;;;;;;9.90;89.30;101388.19;5126309;27;20044;-86
2021/10/19 01:21:09;;;;;;;21.60;13.45;;;;;;;9.91;89.01;101385.56;5099234;28;20043;-86
2021/10/19 01:23:36;;;;;;;25.65;14.82;;;;;;;9.94;88.96;101389.94;5110480;27;20517;-86
2021/10/19 01:26:06;;;;;;;22.15;14.95;;;;;;;9.93;88.78;101376.00;5118486;27;20127;-86
2021/10/19 01:28:37;;;;;;;20.60;13.00;;;;;;;9.94;88.73;101372.50;5118792;27;20051;-86
2021/10/19 01:31:05;;;;;;;21.65;13.77;;;;;;;9.97;88.66;101370.78;5109814;27;20040;-86
2021/10/19 01:33:33;;;;;;;18.17;12.98;;;;;;;9.97;88.85;101376.00;5117735;27;20038;-86
2021/10/19 01:36:00;;;;;;;21.50;13.98;;;;;;;9.99;89.00;101384.75;5111499;27;20035;-86
2021/10/19 01:38:30;;;;;;;24.20;13.57;;;;;;;10.01;88.92;101388.22;5089729;28;20051;-86
2021/10/19 01:41:00;;;;;;;18.20;12.93;;;;;;;10.02;88.87;101382.13;5103323;28;20057;-85
2021/10/19 01:43:29;;;;;;;18.08;13.35;;;;;;;10.02;89.08;101369.91;5109979;27;20036;-86
2021/10/19 01:46:02;;;;;;;21.15;14.55;;;;;;;10.03;89.34;101358.59;5095239;27;20119;-86
2021/10/19 01:48:32;;;;;;;21.23;13.23;;;;;;;10.05;89.44;101361.22;5100183;27;20104;-86
2021/10/19 01:50:58;;;;;;;19.98;14.00;;;;;;;10.05;89.69;101348.13;5091574;28;20063;-86
2021/10/19 01:53:27;;;;;;;19.83;13.45;;;;;;;10.04;89.64;101355.13;5091745;28;20036;-86
2021/10/19 01:55:54;;;;;;;21.67;13.73;;;;;;;10.05;89.75;101356.88;5054014;28;20055;-86
2021/10/19 01:58:24;;;;;;;21.92;13.80;;;;;;;10.08;90.01;101351.66;5090728;28;20039;-86
2021/10/19 02:00:54;;;;;;;20.98;13.95;;;;;;;10.08;89.67;101354.25;5083647;28;20046;-86
2021/10/19 02:03:21;;;;;;;23.77;13.43;;;;;;;10.12;89.88;101356.88;5070111;28;20043;-86
2021/10/19 02:05:48;;;;;;;20.42;14.15;;;;;;;10.10;89.60;101357.78;5084277;28;20052;-86
2021/10/19 02:08:22;;;;;;;22.60;13.98;;;;;;;10.12;89.66;101367.34;5081939;28;20054;-86
2021/10/19 02:10:48;;;;;;;20.17;12.95;;;;;;;10.11;89.59;101366.47;5073789;28;20567;-86
2021/10/19 02:13:16;;;;;;;23.77;14.88;;;;;;;10.09;89.90;101366.47;5069946;28;20774;-86
2021/10/19 02:15:43;;;;;;;21.80;13.93;;;;;;;10.10;89.86;101372.56;5091715;28;20043;-86
2021/10/19 02:18:10;;;;;;;19.73;13.20;;;;;;;10.09;89.66;101357.78;5094843;28;20479;-86
2021/10/19 02:20:38;;;;;;;21.52;14.18;;;;;;;10.10;89.91;101359.50;5081373;28;20047;-86
2021/10/19 02:23:04;;;;;;;18.80;12.63;;;;;;;10.11;89.86;101366.47;5075285;28;20048;-86
2021/10/19 02:25:31;;;;;;;18.80;13.05;;;;;;;10.13;89.84;101359.53;5083271;28;20048;-85
2021/10/19 02:27:59;;;;;;;21.25;14.05;;;;;;;10.14;89.70;101355.16;5058622;28;20051;-86
2021/10/19 02:30:26;;;;;;;23.63;12.82;;;;;;;10.16;89.86;101351.69;5087156;28;20052;-86
2021/10/19 02:32:54;;;;;;;21.20;13.15;;;;;;;10.19;89.83;101349.06;5081855;28;20048;-86
2021/10/19 02:35:21;;;;;;;18.98;13.13;;;;;;;10.19;89.78;101351.69;5090964;28;20040;-86
2021/10/19 02:37:50;;;;;;;22.77;13.35;;;;;;;10.20;89.50;101345.59;5073940;28;20869;-86
2021/10/19 02:40:18;;;;;;;21.70;14.40;;;;;;;10.20;90.00;101334.25;5079893;28;20104;-86
2021/10/19 02:42:45;;;;;;;19.55;13.43;;;;;;;10.18;90.49;101335.97;5074216;28;20048;-86
2021/10/19 02:45:13;;;;;;;19.63;12.93;;;;;;;10.18;90.31;101333.34;5081879;28;20048;-86
2021/10/19 02:47:40;;;;;;;22.15;14.00;;;;;;;10.18;90.24;101344.72;5079195;28;20078;-86
2021/10/19 02:50:08;;;;;;;23.05;14.43;;;;;;;10.19;90.02;101335.13;5107547;27;20521;-86
2021/10/19 02:52:35;;;;;;;18.60;13.13;;;;;;;10.22;90.15;101345.56;5114871;27;20573;-86
2021/10/19 02:55:01;;;;;;;21.17;13.55;;;;;;;10.24;90.08;101338.63;5116158;27;20135;-86
2021/10/19 02:57:30;;;;;;;20.75;13.05;;;;;;;10.26;90.51;101326.44;5103664;27;20152;-86
2021/10/19 02:59:57;;;;;;;19.17;11.65;;;;;;;10.28;90.25;101337.75;5095538;27;20075;-86
2021/10/19 03:02:24;;;;;;;22.45;14.65;;;;;;;10.33;90.08;101333.41;5100796;27;20067;-86
2021/10/19 03:04:51;;;;;;;23.05;14.30;;;;;;;10.34;90.07;101332.56;5109162;27;20139;-85
2021/10/19 03:07:19;;;;;;;22.50;14.43;;;;;;;10.35;90.35;101329.09;5102124;27;20083;-84
2021/10/19 03:09:45;;;;;;;23.05;14.02;;;;;;;10.35;90.29;101320.34;5100899;27;20040;-86
2021/10/19 03:12:12;;;;;;;19.70;13.70;;;;;;;10.34;90.56;101327.31;5101576;27;20151;-86
2021/10/19 03:14:39;;;;;;;22.30;14.85;;;;;;;10.34;90.56;101315.97;5123600;27;20051;-86
2021/10/19 03:17:06;;;;;;;24.27;13.50;;;;;;;10.35;90.33;101318.63;5107362;27;20662;-86
2021/10/19 03:19:32;;;;;;;19.70;12.48;;;;;;;10.37;90.95;101326.50;5125191;27;20142;-86
2021/10/19 03:21:59;;;;;;;16.90;12.55;;;;;;;10.38;90.58;101333.47;5104230;27;20603;-86
2021/10/19 03:24:26;;;;;;;20.48;13.60;;;;;;;10.39;90.88;101327.34;5103248;27;20063;-86
2021/10/19 03:26:56;;;;;;;25.95;15.02;;;;;;;10.39;90.57;101327.34;5121228;27;20067;-85
2021/10/19 03:29:26;;;;;;;23.02;14.48;;;;;;;10.42;90.46;101324.75;5105958;27;20134;-86
2021/10/19 03:31:53;;;;;;;24.00;14.05;;;;;;;10.41;90.83;101325.63;5109327;27;20100;-86
2021/10/19 03:34:20;;;;;;;22.15;13.68;;;;;;;10.40;90.81;101311.69;5103326;27;20048;-86
2021/10/19 03:36:47;;;;;;;21.42;14.23;;;;;;;10.40;91.05;101308.16;5118942;27;20040;-86
2021/10/19 03:39:14;;;;;;;21.48;13.75;;;;;;;10.40;90.78;101308.16;5115660;27;20047;-86
2021/10/19 03:41:41;;;;;;;18.83;13.18;;;;;;;10.41;90.43;101318.63;5118541;27;20063;-86
2021/10/19 03:44:13;;;;;;;20.52;14.13;;;;;;;10.43;90.71;101309.06;5096306;27;20039;-86
2021/10/19 03:46:43;;;;;;;23.73;14.13;;;;;;;10.44;90.60;101309.91;5105086;27;20034;-86
2021/10/19 03:49:10;;;;;;;22.33;14.23;;;;;;;10.47;90.31;101307.31;5103988;27;20051;-86
2021/10/19 03:51:37;;;;;;;21.75;13.82;;;;;;;10.48;90.39;101306.47;5114423;27;20041;-85
2021/10/19 03:54:03;;;;;;;21.33;14.38;;;;;;;10.51;90.23;101310.81;5112836;27;20047;-85
2021/10/19 03:56:30;;;;;;;23.40;14.55;;;;;;;10.52;90.01;101316.06;5116487;27;20035;-86
2021/10/19 03:58:57;;;;;;;21.30;12.95;;;;;;;10.54;89.88;101316.06;5108238;27;20035;-86
2021/10/19 04:01:24;;;;;;;19.50;12.93;;;;;;;10.54;89.84;101308.19;5118961;27;20616;-86
2021/10/19 04:03:55;;;;;;;20.23;12.57;;;;;;;10.51;90.07;101311.69;5125160;27;20481;-86
2021/10/19 04:06:22;;;;;;;22.02;12.88;;;;;;;10.54;89.65;101310.81;5107555;27;20046;-86
2021/10/19 04:08:49;;;;;;;19.15;13.07;;;;;;;10.54;89.99;101313.44;5112509;27;20138;-86
2021/10/19 04:11:16;;;;;;;22.33;13.88;;;;;;;10.55;89.83;101317.81;5118634;27;20031;-86
2021/10/19 04:13:42;;;;;;;20.13;13.23;;;;;;;10.55;89.82;101315.19;5103234;27;20472;-86
2021/10/19 04:16:10;;;;;;;19.08;11.30;;;;;;;10.57;89.94;101316.94;5121908;27;20051;-85
2021/10/19 04:18:37;;;;;;;21.90;14.13;;;;;;;10.59;89.63;101309.09;5114412;27;20940;-85
2021/10/19 04:21:04;;;;;;;23.33;12.70;;;;;;;10.61;89.45;101307.31;5118575;27;20134;-86
2021/10/19 04:23:31;;;;;;;19.52;12.98;;;;;;;10.62;89.59;101311.69;5118902;27;20047;-85
2021/10/19 04:25:58;;;;;;;19.35;13.07;;;;;;;10.61;89.60;101307.31;5137841;27;20382;-86
2021/10/19 04:28:24;;;;;;;17.90;12.25;;;;;;;10.63;89.69;101309.97;5135371;27;20035;-86
2021/10/19 04:30:51;;;;;;;20.90;13.45;;;;;;;10.65;89.48;101316.06;5123554;27;20198;-86
2021/10/19 04:33:21;;;;;;;20.52;12.98;;;;;;;10.61;89.45;101307.31;5130847;27;20039;-85
2021/10/19 04:35:48;;;;;;;18.65;13.00;;;;;;;10.63;89.23;101296.88;5135881;27;21035;-86
2021/10/19 04:38:15;;;;;;;20.80;12.32;;;;;;;10.63;89.23;101295.13;5125867;27;20060;-86
2021/10/19 04:40:42;;;;;;;25.90;14.75;;;;;;;10.65;89.10;101293.38;5138349;27;20047;-85
2021/10/19 04:43:08;;;;;;;22.90;13.93;;;;;;;10.62;89.39;101290.75;5137327;27;20062;-86
2021/10/19 04:45:35;;;;;;;21.05;12.13;;;;;;;10.63;89.32;101291.63;5135131;27;20084;-86
2021/10/19 04:48:02;;;;;;;22.08;14.38;;;;;;;10.61;89.50;101289.00;5115851;27;20049;-86
2021/10/19 04:50:31;;;;;;;18.88;12.73;;;;;;;10.59;89.41;101290.75;5114503;27;20053;-86
2021/10/19 04:52:57;;;;;;;19.33;12.45;;;;;;;10.56;89.51;101288.16;5120657;27;20042;-86
2021/10/19 04:55:24;;;;;;;19.70;13.63;;;;;;;10.53;89.50;101283.78;5119400;27;20046;-86
2021/10/19 04:57:51;;;;;;;21.08;13.02;;;;;;;10.52;89.78;101279.41;5126995;27;20058;-86
2021/10/19 05:00:18;;;;;;;22.75;14.38;;;;;;;10.55;89.78;101268.94;5122499;27;20086;-86
2021/10/19 05:02:49;;;;;;;22.05;13.80;;;;;;;10.56;89.90;101267.19;5128052;27;20051;-86
2021/10/19 05:05:20;;;;;;;22.80;13.50;;;;;;;10.53;89.70;101267.19;5102562;27;20047;-86
2021/10/19 05:07:46;;;;;;;24.67;13.52;;;;;;;10.51;90.03;101261.09;5102423;27;20046;-86
2021/10/19 05:10:14;;;;;;;19.48;12.57;;;;;;;10.52;90.10;101265.44;5121781;27;20046;-87
2021/10/19 05:12:40;;;;;;;23.52;14.25;;;;;;;10.55;90.19;101262.84;5107561;27;20042;-86
2021/10/19 05:15:09;;;;;;;21.98;13.57;;;;;;;10.58;90.05;101262.81;5101403;27;20126;-86
2021/10/19 05:17:36;;;;;;;21.70;13.05;;;;;;;10.61;89.69;101254.97;5121283;27;20382;-86
2021/10/19 05:20:05;;;;;;;20.38;14.10;;;;;;;10.62;89.60;101242.75;5111806;27;20142;-86
2021/10/19 05:22:37;;;;;;;22.38;13.38;;;;;;;10.62;89.33;101240.16;5107747;27;20057;-86
2021/10/19 05:25:05;;;;;;;23.45;13.82;;;;;;;10.60;89.25;101240.16;5110142;27;20054;-86
2021/10/19 05:27:32;;;;;;;22.98;13.75;;;;;;;10.61;89.42;101241.00;5111541;27;20091;-86
2021/10/19 05:29:59;;;;;;;20.95;12.90;;;;;;;10.61;89.16;101227.91;5124571;27;20050;-86
2021/10/19 05:32:26;;;;;;;22.80;13.07;;;;;;;10.62;89.13;101221.81;5140229;27;20074;-86
2021/10/19 05:34:52;;;;;;;19.63;12.80;;;;;;;10.58;89.04;101208.72;5122336;27;20039;-85
2021/10/19 05:37:22;;;;;;;19.25;12.30;;;;;;;10.57;88.91;101214.84;5125706;27;20461;-86
2021/10/19 05:39:49;;;;;;;18.98;13.40;;;;;;;10.49;89.30;101220.94;5129178;27;20077;-86
2021/10/19 05:42:15;;;;;;;20.70;12.90;;;;;;;10.40;89.67;101208.72;5106751;27;20046;-86
2021/10/19 05:44:43;;;;;;;21.77;12.52;;;;;;;10.32;90.28;101211.28;5114790;27;20042;-85
2021/10/19 05:47:10;;;;;;;21.48;13.68;;;;;;;10.25;90.76;101213.03;5128960;27;20043;-85
2021/10/19 05:49:37;;;;;;;21.20;11.77;;;;;;;10.21;90.93;101213.91;5125561;27;20572;-86
2021/10/19 05:52:04;;;;;;;24.13;13.55;;;;;;;10.18;90.93;101219.13;5121019;27;20053;-85
2021/10/19 05:54:34;;;;;;;26.15;13.68;;;;;;;10.13;91.61;101223.47;5127344;27;20039;-86
2021/10/19 05:57:00;;;;;;;19.60;13.13;;;;;;;10.09;91.50;101211.28;5123963;27;20066;-86
2021/10/19 05:59:27;;;;;;;24.08;13.90;;;;;;;10.06;91.86;101224.31;5122519;27;20030;-86
2021/10/19 06:01:55;;;;;;;21.83;13.45;;;;;;;10.05;92.05;101213.00;5124348;27;20050;-86
2021/10/19 06:04:22;;;;;;;26.08;14.82;;;;;;;10.06;91.96;101222.59;5120414;27;20035;-88
2021/10/19 06:07:01;;;;;;;19.48;12.85;;;;;;;10.12;91.98;101213.00;5112278;27;20091;-85
2021/10/19 06:09:29;;;;;;;19.40;12.75;;;;;;;10.15;91.84;101208.66;5129517;27;20035;-86
2021/10/19 06:11:56;;;;;;;25.80;14.65;;;;;;;10.13;91.75;101210.41;5112125;27;20159;-86
2021/10/19 06:14:25;;;;;;;22.38;12.98;;;;;;;10.08;91.42;101206.91;5128012;27;20096;-85
2021/10/19 06:16:52;;;;;;;21.63;13.18;;;;;;;10.04;91.83;101220.84;5119452;27;20046;-86
2021/10/19 06:19:19;;;;;;;23.63;13.20;;;;;;;9.99;92.58;101217.34;5125998;27;20054;-87
2021/10/19 06:21:47;;;;;;;20.88;13.07;;;;;;;9.95;92.72;101216.47;5122720;27;20095;-85
2021/10/19 06:24:13;;;;;;;21.00;14.02;;;;;;;9.95;93.15;101213.84;5138263;27;20448;-86
2021/10/19 06:26:42;;;;;;;19.40;12.50;;;;;;;9.94;93.23;101217.31;5126087;27;20572;-86
2021/10/19 06:29:12;;;;;;;25.52;14.38;;;;;;;9.95;93.61;101219.06;5124844;27;20047;-86
2021/10/19 06:31:41;;;;;;;23.55;14.00;;;;;;;9.95;93.26;101221.69;5122574;27;20070;-85
2021/10/19 06:34:07;;;;;;;23.52;13.93;;;;;;;9.96;93.38;101230.41;5137839;27;20050;-87
2021/10/19 06:36:34;;;;;;;24.00;13.63;;;;;;;9.98;93.25;101233.91;5139256;27;20038;-86
2021/10/19 06:39:01;;;;;;;21.08;13.70;;;;;;;10.03;93.17;101232.19;5128701;27;20106;-85
2021/10/19 06:41:28;;;;;;;19.20;12.65;;;;;;;10.05;92.95;101236.53;5140338;27;20045;-85
2021/10/19 06:43:55;;;;;;;17.58;12.13;;;;;;;10.10;93.37;101242.66;5126071;27;21466;-86
2021/10/19 06:46:21;;;;;;;21.27;13.82;;;;;;;10.16;92.61;101233.94;5118635;27;20038;-87
2021/10/19 06:48:48;;;;;;;25.75;13.40;;;;;;;10.21;92.47;101245.28;5144472;27;20046;-87
2021/10/19 06:51:15;;;;;;;17.95;12.30;;;;;;;10.29;92.42;101242.69;5135323;27;20046;-86
2021/10/19 06:53:42;;;;;;;21.58;13.05;;;;;;;10.39;92.26;101243.59;5161715;27;20054;-86
2021/10/19 06:56:08;;;;;;;20.48;13.57;;;;;;;10.53;91.47;101248.84;5129065;27;20039;-87
2021/10/19 06:58:35;;;;;;;21.38;12.43;;;;;;;10.71;90.73;101240.13;5133338;27;20038;-86
2021/10/19 07:01:05;;;;;;;19.05;11.80;;;;;;;10.85;90.29;101246.25;5137137;27;20047;-87
2021/10/19 07:03:33;;;;;;;23.13;12.35;;;;;;;10.99;89.30;101247.97;5125404;27;20048;-87
2021/10/19 07:06:05;;;;;;;19.52;12.75;;;;;;;11.11;88.53;101240.09;5118186;27;20036;-87
2021/10/19 07:08:36;;;;;;;19.15;11.77;;;;;;;11.17;88.47;101244.44;5122659;27;20047;-87
2021/10/19 07:11:03;;;;;;;19.08;13.00;;;;;;;11.25;87.89;101246.19;5107271;27;20058;-87
2021/10/19 07:13:29;;;;;;;17.70;11.50;;;;;;;11.30;87.47;101238.31;5118279;27;20043;-86
2021/10/19 07:15:57;;;;;;;18.98;12.43;;;;;;;11.37;86.97;101228.69;5111729;27;20045;-85
2021/10/19 07:18:26;;;;;;;17.92;10.82;;;;;;;11.46;87.03;101217.28;5127123;27;20053;-86
2021/10/19 07:20:54;;;;;;;18.98;11.70;;;;;;;11.53;86.44;101217.25;5131477;27;20057;-87
2021/10/19 07:23:21;;;;;;;19.08;12.32;;;;;;;11.61;85.95;101222.47;5127173;27;20038;-86
2021/10/19 07:25:49;;;;;;;18.30;12.43;;;;;;;11.70;86.01;101221.56;5126715;27;20039;-86
2021/10/19 07:28:15;;;;;;;17.90;10.95;;;;;;;11.78;85.30;101214.53;5143600;27;20038;-87
2021/10/19 07:30:42;;;;;;;17.02;11.43;;;;;;;11.88;84.58;101213.59;5131855;27;20144;-87
2021/10/19 07:33:09;;;;;;;18.73;10.80;;;;;;;11.95;84.63;101209.22;5104942;27;20107;-87
2021/10/19 07:35:35;;;;;;;18.23;11.85;;;;;;;12.06;84.12;101217.06;5100903;27;20035;-86
2021/10/19 07:38:02;;;;;;;16.08;10.32;;;;;;;12.11;83.83;101211.75;5100577;27;21873;-86
2021/10/19 07:40:29;;;;;;;18.33;11.90;;;;;;;12.20;83.84;101209.06;5106299;27;20131;-86
2021/10/19 07:42:57;;;;;;;17.98;10.95;;;;;;;12.27;83.41;101217.78;5101641;27;20061;-87
2021/10/19 07:45:26;;;;;;;16.70;11.75;;;;;;;12.33;82.92;101226.50;5120470;27;20039;-86
2021/10/19 07:47:53;;;;;;;19.20;11.75;;;;;;;12.35;82.37;101222.09;5124830;27;20046;-86
2021/10/19 07:50:22;;;;;;;19.55;11.88;;;;;;;12.36;82.42;101223.00;5105934;27;20055;-86
2021/10/19 07:52:51;;;;;;;18.00;10.95;;;;;;;12.29;82.14;101209.00;5122809;27;20047;-85
2021/10/19 07:55:18;;;;;;;16.63;12.40;;;;;;;12.26;82.66;101201.16;5105008;27;20046;-86
2021/10/19 07:57:51;;;;;;;21.27;13.43;;;;;;;12.23;82.63;101209.94;5121986;27;20047;-86
2021/10/19 08:00:26;;;;;;;16.17;11.73;;;;;;;12.21;82.71;101222.19;5140135;27;20069;-85
2021/10/19 08:02:54;;;;;;;15.55;12.05;;;;;;;12.21;82.93;101209.06;5121128;27;20513;-86
2021/10/19 08:05:22;;;;;;;20.25;11.98;;;;;;;12.26;83.08;101210.81;5099615;27;20051;-85
2021/10/19 08:07:52;;;;;;;16.90;11.15;;;;;;;12.33;82.48;101213.38;5114579;27;20064;-85
2021/10/19 08:10:24;;;;;;;28.92;15.13;;;;;;;12.37;82.71;101206.31;5100753;27;20051;-85
2021/10/19 08:12:51;;;;;;;16.83;11.80;;;;;;;12.41;82.73;101215.91;5107051;27;20054;-86
2021/10/19 08:15:18;;;;;;;21.08;11.57;;;;;;;12.40;82.80;101215.06;5093472;27;20039;-86
2021/10/19 08:17:46;;;;;;;20.75;11.38;;;;;;;12.37;83.09;101206.31;5104685;27;20444;-86
2021/10/19 08:20:15;;;;;;;18.10;11.02;;;;;;;12.33;83.56;101204.63;5089707;27;20134;-86
2021/10/19 08:22:43;;;;;;;18.05;12.32;;;;;;;12.32;83.68;101205.50;5086540;27;20490;-86
2021/10/19 08:25:10;;;;;;;19.05;10.93;;;;;;;12.33;83.91;101207.25;5089473;27;20520;-86
2021/10/19 08:27:42;;;;;;;16.10;11.18;;;;;;;12.38;84.11;101213.31;5087061;27;20412;-86
2021/10/19 08:30:13;;;;;;;17.58;10.40;;;;;;;12.45;84.21;101212.41;5085116;27;20050;-86
2021/10/19 08:32:40;;;;;;;13.98;10.02;;;;;;;12.55;83.92;101211.47;5078831;27;20054;-86
2021/10/19 08:35:08;;;;;;;17.05;10.55;;;;;;;12.70;83.47;101210.44;5099562;27;20050;-86
2021/10/19 08:37:35;;;;;;;14.73;10.77;;;;;;;12.78;83.40;101209.50;5096301;27;20035;-86
2021/10/19 08:40:02;;;;;;;15.35;10.25;;;;;;;12.88;83.08;101198.00;5096188;27;20050;-85
2021/10/19 08:42:29;;;;;;;15.75;11.15;;;;;;;12.96;82.49;101201.44;5082515;27;20050;-86
2021/10/19 08:44:56;;;;;;;14.05;9.90;;;;;;;13.07;81.93;101201.31;5096473;27;20040;-86
2021/10/19 08:47:23;;;;;;;11.73;9.45;;;;;;;13.17;80.88;101200.34;5096924;27;20048;-86
2021/10/19 08:49:50;;;;;;;13.73;10.27;;;;;;;13.30;81.14;101202.84;5096383;27;20073;-86
2021/10/19 08:52:17;;;;;;;14.35;10.10;;;;;;;13.43;80.36;101214.09;5103717;27;20042;-85
2021/10/19 08:54:45;;;;;;;14.20;10.80;;;;;;;13.53;79.64;101216.63;5096645;27;20047;-86
2021/10/19 08:57:20;;;;;;;14.73;9.77;;;;;;;13.59;78.99;101210.41;5088836;27;20035;-86
2021/10/19 08:59:48;;;;;;;14.60;10.23;;;;;;;13.50;79.19;101200.88;5083688;27;20783;-86
2021/10/19 09:02:15;;;;;;;15.05;11.05;;;;;;;13.51;79.59;101196.50;5099276;27;20043;-86
2021/10/19 09:04:43;;;;;;;18.75;10.75;;;;;;;13.59;79.63;101199.88;5099478;27;20475;-86
2021/10/19 09:07:11;;;;;;;14.02;9.77;;;;;;;13.73;78.84;101184.78;5099402;27;20044;-86
2021/10/19 09:09:41;;;;;;;14.35;10.55;;;;;;;13.83;77.76;101187.28;5084901;27;20059;-86
2021/10/19 09:12:08;;;;;;;16.45;11.60;;;;;;;13.88;77.25;101182.84;5099242;27;20130;-86
2021/10/19 09:14:38;;;;;;;16.05;10.32;;;;;;;13.84;76.58;101186.41;5098274;27;20689;-86
2021/10/19 09:17:06;;;;;;;11.68;9.18;;;;;;;13.85;76.77;101172.38;5114732;27;20027;-86
2021/10/19 09:19:35;;;;;;;14.75;9.85;;;;;;;13.97;76.38;101177.44;5099003;27;20401;-86
2021/10/19 09:22:08;;;;;;;12.48;8.52;;;;;;;14.09;75.61;101171.13;5101987;27;20043;-87
2021/10/19 09:24:36;;;;;;;15.70;10.50;;;;;;;14.21;75.52;101175.34;5116781;27;20047;-86
2021/10/19 09:27:10;;;;;;;17.17;9.73;;;;;;;14.29;75.13;101169.94;5129081;27;20046;-87
2021/10/19 09:29:50;;;;;;;14.60;9.88;;;;;;;14.25;74.82;101171.75;5121131;27;20043;-86
2021/10/19 09:32:19;;;;;;;13.27;9.00;;;;;;;14.25;75.38;101165.59;5113762;27;20043;-86
2021/10/19 09:34:48;;;;;;;12.82;8.80;;;;;;;14.22;75.17;101161.25;5104175;27;20047;-86
2021/10/19 09:37:23;;;;;;;13.93;9.27;;;;;;;14.25;74.95;101158.59;5098665;27;20414;-86
2021/10/19 09:39:53;;;;;;;13.05;9.02;;;;;;;14.33;75.13;101156.69;5115822;27;20047;-86
2021/10/19 09:42:28;;;;;;;15.35;10.15;;;;;;;14.41;74.91;101159.22;5125066;27;20035;-87
2021/10/19 09:45:02;;;;;;;10.77;8.63;;;;;;;14.54;74.70;101163.38;5131193;27;20172;-86
2021/10/19 09:47:37;;;;;;;13.88;9.38;;;;;;;14.58;74.10;101160.69;5097460;27;20503;-86
2021/10/19 09:50:07;;;;;;;11.68;8.13;;;;;;;14.67;73.94;101160.56;5093446;28;20059;-86
2021/10/19 09:52:38;;;;;;;13.48;9.05;;;;;;;14.82;73.52;101160.28;5078113;28;20044;-86
2021/10/19 09:55:10;;;;;;;12.27;9.60;;;;;;;14.83;73.11;101164.63;5073272;28;20067;-86
2021/10/19 09:57:42;;;;;;;11.75;8.30;;;;;;;14.89;73.46;101166.31;5095717;28;20058;-85
2021/10/19 10:00:11;;;;;;;11.32;8.63;;;;;;;14.95;73.40;101167.94;5088787;28;20051;-85
2021/10/19 10:02:38;;;;;;;12.13;8.10;;;;;;;14.93;73.45;101162.72;5090241;28;20126;-87
2021/10/19 10:05:07;;;;;;;9.52;6.93;;;;;;;14.89;73.68;101161.03;5088672;28;21211;-84
2021/10/19 10:07:41;;;;;;;9.25;7.18;;;;;;;14.81;74.10;101162.94;5092232;28;20048;-85
2021/10/19 10:10:15;;;;;;;12.55;9.20;;;;;;;14.68;74.40;101168.44;5075026;28;21034;-85
2021/10/19 10:12:49;;;;;;;11.45;8.13;;;;;;;14.55;74.92;101167.75;5088436;28;20033;-87
2021/10/19 10:15:25;;;;;;;11.95;7.72;;;;;;;14.44;75.71;101166.19;5076749;28;20080;-86
2021/10/19 10:18:00;;;;;;;12.40;8.77;;;;;;;14.38;76.25;101157.50;5071643;28;20051;-86
2021/10/19 10:20:47;;;;;;;16.30;8.77;;;;;;;14.32;76.82;101147.06;5091504;28;20112;-86
2021/10/19 10:23:23;;;;;;;11.05;8.35;;;;;;;14.30;76.99;101145.34;5075001;28;20063;-86
2021/10/19 10:25:56;;;;;;;10.20;8.15;;;;;;;14.26;77.47;101141.03;5072120;28;20044;-87
2021/10/19 10:28:32;;;;;;;10.90;7.53;;;;;;;14.26;77.59;101141.03;5076601;28;20109;-86
2021/10/19 10:31:07;;;;;;;11.02;7.70;;;;;;;14.31;77.53;101128.66;5071033;28;20067;-86
2021/10/19 10:33:39;;;;;;;11.57;8.43;;;;;;;14.36;77.76;101125.03;5054887;28;20548;-84
2021/10/19 10:36:17;;;;;;;12.80;7.97;;;;;;;14.50;77.30;101118.69;5055241;28;20127;-87
2021/10/19 10:39:03;;;;;;;8.75;7.28;;;;;;;14.61;76.92;101110.56;5059713;28;20075;-86
2021/10/19 10:41:38;;;;;;;7.25;6.57;;;;;;;14.72;76.78;101113.91;5059357;28;21053;-84
2021/10/19 10:44:06;;;;;;;10.23;6.82;;;;;;;14.82;76.53;101109.31;5074531;28;20060;-85
2021/10/19 10:46:33;;;;;;;10.02;7.50;;;;;;;14.96;76.14;101104.66;5058508;28;20151;-86
2021/10/19 10:48:59;;;;;;;8.57;6.55;;;;;;;15.08;76.01;101102.66;5080442;28;20044;-85
2021/10/19 10:51:36;;;;;;;7.18;6.13;;;;;;;15.14;75.52;101097.28;5092914;28;20070;-86
2021/10/19 10:54:04;;;;;;;7.75;6.40;;;;;;;15.17;75.51;101100.69;5085361;27;20051;-84
2021/10/19 10:56:48;;;;;;;7.15;5.70;;;;;;;15.09;75.86;101109.69;5081457;27;20493;-85
2021/10/19 10:59:29;;;;;;;10.68;5.82;;;;;;;15.00;76.25;101103.69;5085431;27;20047;-86
2021/10/19 11:02:10;;;;;;;10.05;6.07;;;;;;;14.94;76.55;101103.81;5079068;27;20043;-86
2021/10/19 11:04:49;;;;;;;11.05;6.70;;;;;;;14.86;77.04;101105.72;5082677;27;20094;-86
2021/10/19 11:07:34;;;;;;;9.35;6.80;;;;;;;14.81;77.72;101099.66;5089216;27;20058;-86
2021/10/19 11:10:18;;;;;;;7.68;5.15;;;;;;;14.75;78.40;101100.66;5086828;27;20055;-85
2021/10/19 11:12:45;;;;;;;6.50;5.38;;;;;;;14.78;78.02;101097.09;5097342;27;20075;-85
2021/10/19 11:15:18;;;;;;;8.00;5.32;;;;;;;14.82;78.00;101102.31;5094541;27;20050;-85
2021/10/19 11:17:51;;;;;;;5.28;4.68;;;;;;;14.83;77.99;101095.25;5092775;27;20073;-86
2021/10/19 11:20:20;;;;;;;6.47;4.82;;;;;;;14.86;78.21;101096.06;5084039;27;20047;-86